Time;durP1;ratioP1;P1;durP2;ratioP2;P2;SDS_P1;SDS_P2;PMS_P1;PMS_P2;Temp;Humidity;BMP_temperature;BMP_pressure;BME280_temperature;BME280_humidity;BME280_pressure;Samples;Min_cycle;Max_cycle;Signal;HPM_P1;HPM_P2
2023/06/15 00:02:16;;;;;;;2.63;2.10;;;15.80;99.90;;;;;;5006733;28;20317;-64
2023/06/15 00:04:42;;;;;;;3.17;2.47;;;15.60;99.90;;;;;;4999833;28;20202;-64
2023/06/15 00:07:10;;;;;;;3.97;2.42;;;15.60;99.90;;;;;;5006663;28;20230;-64
2023/06/15 00:09:38;;;;;;;2.85;2.20;;;15.60;99.90;;;;;;4995875;28;20217;-63
2023/06/15 00:12:08;;;;;;;8.20;2.00;;;15.50;99.90;;;;;;5011045;28;20199;-63
2023/06/15 00:14:35;;;;;;;2.60;2.30;;;15.40;99.90;;;;;;4966156;28;20674;-64
2023/06/15 00:17:03;;;;;;;2.40;2.20;;;15.40;99.90;;;;;;4997475;28;20210;-63
2023/06/15 00:19:29;;;;;;;6.35;2.38;;;15.40;99.90;;;;;;4994032;28;20817;-64
2023/06/15 00:21:56;;;;;;;2.75;2.25;;;15.50;99.90;;;;;;5008990;28;20240;-63
2023/06/15 00:24:23;;;;;;;4.78;2.38;;;15.60;99.90;;;;;;4989808;28;20214;-63
2023/06/15 00:26:51;;;;;;;2.78;1.90;;;15.50;99.90;;;;;;5007070;28;20190;-63
2023/06/15 00:29:18;;;;;;;2.50;2.17;;;15.80;99.90;;;;;;4961463;28;20786;-64
2023/06/15 00:31:45;;;;;;;14.77;2.85;;;15.90;99.90;;;;;;4987876;28;21131;-63
2023/06/15 00:34:12;;;;;;;3.40;2.42;;;16.00;99.90;;;;;;5004558;28;20202;-64
2023/06/15 00:36:39;;;;;;;3.53;2.35;;;15.90;99.90;;;;;;4995295;28;20217;-64
2023/06/15 00:39:06;;;;;;;4.55;2.38;;;15.90;99.90;;;;;;4997241;28;20197;-64
2023/06/15 00:41:41;;;;;;;3.05;2.13;;;15.80;99.90;;;;;;5005630;28;20279;-63
2023/06/15 00:44:09;;;;;;;4.18;1.80;;;15.70;99.90;;;;;;4976229;28;20241;-64
2023/06/15 00:46:37;;;;;;;4.40;2.63;;;14.50;99.90;;;;;;5006709;28;20205;-63
2023/06/15 00:49:04;;;;;;;2.45;2.08;;;15.50;99.90;;;;;;4994523;28;20206;-63
2023/06/15 00:51:32;;;;;;;3.70;2.10;;;15.40;99.90;;;;;;4993237;28;20368;-64
2023/06/15 00:53:59;;;;;;;7.82;2.40;;;15.30;99.90;;;;;;4996969;28;21078;-64
2023/06/15 00:56:29;;;;;;;4.30;2.15;;;15.30;99.90;;;;;;5005336;28;20203;-63
2023/06/15 00:58:56;;;;;;;4.25;2.13;;;15.30;99.90;;;;;;4974781;28;20344;-64
2023/06/15 01:01:24;;;;;;;4.30;2.25;;;15.30;99.90;;;;;;4992093;28;20719;-63
2023/06/15 01:03:52;;;;;;;4.80;2.30;;;15.30;99.90;;;;;;4995526;28;20202;-63
2023/06/15 01:06:19;;;;;;;3.67;2.10;;;15.20;99.90;;;;;;4992313;28;20210;-63
2023/06/15 01:08:48;;;;;;;5.13;2.20;;;15.20;99.90;;;;;;5004954;28;20564;-63
2023/06/15 01:11:16;;;;;;;2.92;2.63;;;15.30;99.90;;;;;;4994948;28;20666;-63
2023/06/15 01:13:44;;;;;;;3.25;2.40;;;15.20;99.90;;;;;;5004386;28;20206;-64
2023/06/15 01:16:19;;;;;;;3.80;2.33;;;15.20;99.90;;;;;;4974160;28;20838;-63
2023/06/15 01:18:50;;;;;;;6.28;2.45;;;15.10;99.90;;;;;;4996214;28;20206;-63
2023/06/15 01:21:18;;;;;;;3.65;2.60;;;15.00;99.90;;;;;;4996844;28;20257;-63
2023/06/15 01:23:58;;;;;;;5.65;2.50;;;14.90;99.90;;;;;;5008688;28;20208;-63
2023/06/15 01:26:28;;;;;;;2.53;2.20;;;14.80;99.90;;;;;;4989545;28;20756;-64
2023/06/15 01:28:59;;;;;;;2.60;2.40;;;14.90;99.90;;;;;;5009717;28;20228;-63
2023/06/15 01:31:26;;;;;;;2.85;1.90;;;14.80;99.90;;;;;;4972086;28;20366;-63
2023/06/15 01:33:53;;;;;;;4.68;2.65;;;14.80;99.90;;;;;;4996998;28;21017;-63
2023/06/15 01:36:20;;;;;;;4.70;2.28;;;14.70;99.90;;;;;;4993668;28;20210;-63
2023/06/15 01:38:50;;;;;;;3.72;2.38;;;15.30;99.90;;;;;;5008891;28;20205;-63
2023/06/15 01:41:19;;;;;;;4.25;2.75;;;14.60;99.90;;;;;;4997344;28;20222;-63
2023/06/15 01:43:47;;;;;;;4.05;2.60;;;14.80;99.90;;;;;;5007229;28;20204;-63
2023/06/15 01:46:15;;;;;;;2.58;2.30;;;14.80;99.90;;;;;;4975097;28;20210;-63
2023/06/15 01:48:42;;;;;;;5.65;2.72;;;14.80;99.90;;;;;;5008602;28;20497;-63
2023/06/15 01:51:11;;;;;;;4.15;2.67;;;14.80;99.90;;;;;;4983963;28;20213;-63
2023/06/15 01:53:38;;;;;;;4.53;2.40;;;14.80;99.90;;;;;;4996809;28;20331;-64
2023/06/15 01:56:05;;;;;;;4.40;2.70;;;14.80;99.90;;;;;;5005623;28;20213;-63
2023/06/15 01:58:32;;;;;;;2.88;2.55;;;14.60;99.90;;;;;;4993082;28;21295;-63
2023/06/15 02:01:00;;;;;;;3.10;2.13;;;14.50;99.90;;;;;;5004910;28;20209;-63
2023/06/15 02:03:27;;;;;;;4.85;2.30;;;14.50;99.90;;;;;;4974126;28;20226;-64
2023/06/15 02:05:54;;;;;;;5.00;2.40;;;14.40;99.90;;;;;;4996277;28;20256;-63
2023/06/15 02:08:21;;;;;;;6.10;2.20;;;14.40;99.90;;;;;;4997747;28;20920;-63
2023/06/15 02:10:48;;;;;;;4.20;2.45;;;14.30;99.90;;;;;;5010795;28;20858;-63
2023/06/15 02:13:15;;;;;;;3.38;2.28;;;14.20;99.90;;;;;;4991877;28;20206;-63
2023/06/15 02:15:42;;;;;;;2.90;2.33;;;14.20;99.90;;;;;;5004747;28;20675;-64
2023/06/15 02:18:14;;;;;;;5.80;2.30;;;14.10;99.90;;;;;;4980458;28;20352;-63
2023/06/15 02:20:41;;;;;;;7.38;2.75;;;13.90;99.90;;;;;;4994782;28;20937;-63
2023/06/15 02:23:08;;;;;;;4.15;2.80;;;13.60;99.90;;;;;;4994937;28;20269;-63
2023/06/15 02:25:35;;;;;;;3.92;2.65;;;13.60;99.90;;;;;;5000962;28;20680;-63
2023/06/15 02:28:02;;;;;;;8.13;2.38;;;13.40;99.90;;;;;;4995469;28;20281;-63
2023/06/15 02:30:29;;;;;;;3.15;2.50;;;13.30;99.90;;;;;;5000134;28;20514;-63
2023/06/15 02:33:00;;;;;;;6.25;2.60;;;13.20;99.90;;;;;;5008576;28;20198;-63
2023/06/15 02:35:28;;;;;;;2.95;2.42;;;13.30;99.90;;;;;;4972704;28;20222;-63
2023/06/15 02:37:55;;;;;;;4.05;2.40;;;13.50;99.90;;;;;;4987112;28;20248;-63
2023/06/15 02:40:22;;;;;;;3.58;2.55;;;13.60;99.90;;;;;;4998273;28;20743;-63
2023/06/15 02:42:49;;;;;;;5.55;2.60;;;13.60;99.90;;;;;;5007082;28;20233;-63
2023/06/15 02:45:17;;;;;;;3.25;2.42;;;;;;;;;;4983535;28;20317;-63
2023/06/15 02:47:44;;;;;;;4.53;2.70;;;13.80;99.90;;;;;;4989052;28;20673;-64
2023/06/15 02:50:11;;;;;;;3.80;2.10;;;13.70;99.90;;;;;;4969342;28;20319;-63
2023/06/15 02:52:40;;;;;;;4.25;2.67;;;13.90;99.90;;;;;;4987504;28;20439;-63
2023/06/15 02:55:08;;;;;;;5.18;2.50;;;13.90;99.90;;;;;;4991477;28;20226;-64
2023/06/15 02:57:36;;;;;;;6.53;2.88;;;13.90;99.90;;;;;;5007827;28;20878;-63
2023/06/15 03:00:03;;;;;;;9.23;2.70;;;13.90;99.90;;;;;;4993316;28;20210;-63
2023/06/15 03:02:30;;;;;;;4.22;2.35;;;14.00;99.90;;;;;;4990569;28;20226;-63
2023/06/15 03:04:57;;;;;;;4.18;2.83;;;14.00;99.90;;;;;;4977555;28;20932;-63
2023/06/15 03:07:25;;;;;;;2.88;2.42;;;13.90;99.90;;;;;;4995703;28;20234;-64
2023/06/15 03:09:53;;;;;;;4.60;2.95;;;13.70;99.90;;;;;;4993745;28;20711;-63
2023/06/15 03:12:21;;;;;;;5.07;2.58;;;13.70;99.90;;;;;;4992153;28;20222;-63
2023/06/15 03:14:50;;;;;;;3.78;2.35;;;13.70;99.90;;;;;;4992196;28;20198;-63
2023/06/15 03:17:17;;;;;;;2.90;2.30;;;13.70;99.90;;;;;;4997364;28;20218;-63
2023/06/15 03:19:46;;;;;;;3.15;2.22;;;13.70;99.90;;;;;;4996349;28;20312;-63
2023/06/15 03:22:13;;;;;;;3.88;2.40;;;13.60;99.90;;;;;;4956922;28;20526;-63
2023/06/15 03:24:41;;;;;;;7.97;2.90;;;13.60;99.90;;;;;;4979800;28;20222;-63
2023/06/15 03:27:11;;;;;;;5.72;3.00;;;13.70;99.90;;;;;;4989895;28;20973;-63
2023/06/15 03:29:38;;;;;;;4.90;2.63;;;13.60;99.90;;;;;;4991949;28;20640;-63
2023/06/15 03:32:06;;;;;;;4.78;2.20;;;13.50;99.90;;;;;;4995463;28;20231;-63
2023/06/15 03:34:33;;;;;;;3.40;2.40;;;13.50;99.90;;;;;;4984889;28;20335;-63
2023/06/15 03:37:00;;;;;;;5.03;3.10;;;13.50;99.90;;;;;;4965320;28;20261;-63
2023/06/15 03:39:27;;;;;;;2.97;2.58;;;13.50;99.90;;;;;;4994112;28;20194;-64
2023/06/15 03:41:54;;;;;;;3.78;2.60;;;13.60;99.90;;;;;;4993455;28;20207;-64
2023/06/15 03:44:22;;;;;;;5.10;2.70;;;13.50;99.90;;;;;;5003885;28;20221;-64
2023/06/15 03:46:49;;;;;;;4.88;2.60;;;;;;;;;;4998520;28;20202;-63
2023/06/15 03:49:16;;;;;;;3.45;2.70;;;13.70;99.90;;;;;;5007035;28;20295;-64
2023/06/15 03:51:43;;;;;;;6.35;2.47;;;13.70;99.90;;;;;;4979224;28;21037;-63
2023/06/15 03:54:10;;;;;;;4.78;3.10;;;13.70;99.90;;;;;;4999539;28;20219;-64
2023/06/15 03:56:37;;;;;;;5.88;2.42;;;13.70;99.90;;;;;;4989721;28;20386;-64
2023/06/15 03:59:04;;;;;;;4.60;2.63;;;13.70;99.90;;;;;;5009237;28;20202;-63
2023/06/15 04:01:32;;;;;;;6.70;2.95;;;13.60;99.90;;;;;;4985571;28;20618;-63
2023/06/15 04:03:59;;;;;;;5.40;2.80;;;13.60;99.90;;;;;;5005080;28;20234;-63
2023/06/15 04:06:26;;;;;;;3.80;2.72;;;13.70;99.90;;;;;;4979845;28;21730;-63
2023/06/15 04:08:53;;;;;;;4.20;2.80;;;13.60;99.90;;;;;;5011437;28;20233;-63
2023/06/15 04:11:20;;;;;;;8.02;2.92;;;13.60;99.90;;;;;;4995135;28;20210;-63
2023/06/15 04:13:47;;;;;;;8.55;3.00;;;13.70;99.90;;;;;;5002265;28;20210;-63
2023/06/15 04:16:14;;;;;;;3.58;2.63;;;13.80;99.90;;;;;;5009683;28;20202;-64
2023/06/15 04:18:42;;;;;;;4.70;2.92;;;14.00;99.90;;;;;;4991125;28;20226;-63
2023/06/15 04:21:09;;;;;;;3.25;2.67;;;13.90;99.90;;;;;;4998936;28;21153;-63
2023/06/15 04:23:36;;;;;;;9.60;2.97;;;13.80;99.90;;;;;;4981311;28;20230;-63
2023/06/15 04:26:03;;;;;;;4.80;2.58;;;14.10;99.90;;;;;;5000429;28;20398;-64
2023/06/15 04:28:31;;;;;;;5.10;2.92;;;13.90;99.90;;;;;;4998795;28;20228;-63
2023/06/15 04:31:08;;;;;;;4.55;2.90;;;14.00;99.90;;;;;;5010507;28;20560;-63
2023/06/15 04:33:36;;;;;;;3.50;2.55;;;14.00;99.90;;;;;;4996793;28;20190;-63
2023/06/15 04:36:04;;;;;;;4.47;2.80;;;14.10;99.90;;;;;;4993463;28;20539;-63
2023/06/15 04:38:31;;;;;;;5.03;2.90;;;14.10;99.90;;;;;;4975937;28;20229;-63
2023/06/15 04:40:59;;;;;;;2.90;2.60;;;14.10;99.90;;;;;;4985686;28;20578;-63
2023/06/15 04:43:26;;;;;;;4.20;3.03;;;14.10;99.90;;;;;;5000463;28;20222;-63
2023/06/15 04:45:53;;;;;;;3.33;2.58;;;14.00;99.90;;;;;;5013294;28;20458;-63
2023/06/15 04:48:20;;;;;;;5.53;2.65;;;14.20;99.90;;;;;;5003061;28;20217;-63
2023/06/15 04:50:48;;;;;;;5.38;3.00;;;14.30;99.90;;;;;;4998257;28;20222;-63
2023/06/15 04:53:18;;;;;;;4.35;3.05;;;14.40;99.90;;;;;;4979143;28;20312;-64
2023/06/15 04:55:45;;;;;;;5.53;2.58;;;14.40;99.90;;;;;;4993557;28;20226;-63
2023/06/15 04:58:13;;;;;;;5.13;3.03;;;14.50;99.90;;;;;;4990803;28;20228;-63
2023/06/15 05:00:40;;;;;;;4.97;2.88;;;14.50;99.90;;;;;;5007514;28;20781;-66
2023/06/15 05:03:07;;;;;;;3.75;2.75;;;14.50;99.90;;;;;;4996550;28;20768;-63
2023/06/15 05:05:34;;;;;;;4.20;2.80;;;14.50;99.90;;;;;;5010492;28;20194;-63
2023/06/15 05:08:01;;;;;;;6.15;3.08;;;14.50;99.90;;;;;;5012760;28;20233;-63
2023/06/15 05:10:29;;;;;;;6.18;2.95;;;14.50;99.90;;;;;;4976685;28;20309;-63
2023/06/15 05:12:58;;;;;;;6.72;3.15;;;13.80;99.90;;;;;;5002060;28;20234;-63
2023/06/15 05:15:25;;;;;;;7.07;3.17;;;14.70;99.90;;;;;;4999487;28;20221;-62
2023/06/15 05:17:51;;;;;;;4.18;3.00;;;14.80;99.90;;;;;;4998721;28;20317;-63
2023/06/15 05:20:18;;;;;;;5.85;3.22;;;14.80;99.90;;;;;;4995769;28;20226;-63
2023/06/15 05:22:45;;;;;;;3.20;2.75;;;15.00;99.90;;;;;;5003521;28;20222;-63
2023/06/15 05:25:12;;;;;;;3.38;2.80;;;15.00;99.90;;;;;;4976371;28;20221;-63
2023/06/15 05:27:42;;;;;;;4.85;2.80;;;15.20;99.90;;;;;;5004740;28;20202;-63
2023/06/15 05:30:11;;;;;;;6.45;2.85;;;15.20;99.90;;;;;;4993392;28;20241;-63
2023/06/15 05:32:39;;;;;;;6.18;3.05;;;15.30;99.90;;;;;;5013009;28;20202;-63
2023/06/15 05:35:07;;;;;;;5.35;2.88;;;15.40;99.90;;;;;;4996781;28;20625;-63
2023/06/15 05:37:34;;;;;;;4.35;3.20;;;15.40;99.90;;;;;;5008478;28;20203;-63
2023/06/15 05:40:01;;;;;;;6.85;3.22;;;15.60;99.90;;;;;;5009884;28;20563;-63
2023/06/15 05:42:28;;;;;;;3.45;3.15;;;15.70;99.90;;;;;;4977860;28;20209;-63
2023/06/15 05:44:57;;;;;;;6.05;3.20;;;16.20;99.90;;;;;;4985047;28;20225;-63
2023/06/15 05:47:24;;;;;;;4.72;2.80;;;15.70;99.90;;;;;;5011430;28;20751;-63
2023/06/15 05:49:51;;;;;;;4.07;2.80;;;15.90;99.90;;;;;;4997217;28;20296;-63
2023/06/15 05:52:19;;;;;;;4.03;3.50;;;15.80;99.90;;;;;;5012162;28;20742;-63
2023/06/15 05:54:46;;;;;;;2.92;2.60;;;16.00;99.90;;;;;;5002428;28;20357;-63
2023/06/15 05:57:14;;;;;;;5.00;3.47;;;16.00;99.90;;;;;;4978273;28;20217;-63
2023/06/15 05:59:41;;;;;;;7.18;3.22;;;16.40;99.90;;;;;;4989946;28;20225;-63
2023/06/15 06:02:09;;;;;;;8.65;2.90;;;16.30;99.90;;;;;;4997276;28;20194;-63
2023/06/15 06:04:36;;;;;;;7.10;3.38;;;16.30;99.90;;;;;;4992502;28;20852;-63
2023/06/15 06:07:06;;;;;;;5.60;3.20;;;16.40;99.90;;;;;;5008548;28;20253;-63
2023/06/15 06:09:33;;;;;;;7.38;2.92;;;16.50;99.90;;;;;;5008664;28;20205;-63
2023/06/15 06:12:01;;;;;;;6.88;2.65;;;16.60;99.90;;;;;;5005231;28;20770;-63
2023/06/15 06:14:28;;;;;;;10.48;2.90;;;16.60;99.90;;;;;;4979731;28;20259;-63
2023/06/15 06:16:55;;;;;;;8.63;2.80;;;16.70;99.90;;;;;;4993313;28;20207;-63
2023/06/15 06:19:24;;;;;;;8.15;2.78;;;16.70;99.90;;;;;;4998381;28;20201;-63
2023/06/15 06:21:51;;;;;;;6.35;2.75;;;16.90;99.90;;;;;;5006796;28;20969;-63
2023/06/15 06:24:18;;;;;;;3.65;2.40;;;17.00;99.90;;;;;;5009766;28;20221;-63
2023/06/15 06:26:44;;;;;;;6.63;2.45;;;17.10;99.90;;;;;;4996963;28;20292;-63
2023/06/15 06:29:11;;;;;;;5.45;2.63;;;17.10;99.90;;;;;;4979508;28;20216;-63
2023/06/15 06:31:38;;;;;;;5.10;2.90;;;17.20;99.90;;;;;;4995876;28;20199;-63
2023/06/15 06:34:05;;;;;;;3.40;2.53;;;17.20;99.90;;;;;;5008303;28;20194;-64
2023/06/15 06:36:34;;;;;;;3.00;2.33;;;17.30;99.90;;;;;;4996538;28;20701;-63
2023/06/15 06:39:01;;;;;;;2.55;2.20;;;17.40;99.90;;;;;;5008563;28;20198;-63
2023/06/15 06:41:27;;;;;;;6.43;2.15;;;17.50;99.90;;;;;;5007661;28;20575;-63
2023/06/15 06:43:54;;;;;;;3.92;2.25;;;17.60;99.90;;;;;;4975776;28;20608;-63
2023/06/15 06:46:22;;;;;;;4.28;2.65;;;17.60;99.90;;;;;;4992387;28;20199;-63
2023/06/15 06:48:49;;;;;;;3.75;2.58;;;17.70;99.90;;;;;;5010396;28;20237;-64
2023/06/15 06:51:16;;;;;;;3.08;2.30;;;17.70;99.90;;;;;;4998403;28;20210;-64
2023/06/15 06:53:44;;;;;;;8.82;2.50;;;17.80;99.90;;;;;;5009863;28;20240;-63
2023/06/15 06:56:11;;;;;;;2.88;2.13;;;17.80;99.90;;;;;;5009569;28;20538;-63
2023/06/15 06:58:37;;;;;;;5.07;2.38;;;17.90;99.90;;;;;;4995628;28;20257;-64
2023/06/15 07:01:04;;;;;;;4.28;2.45;;;17.90;99.90;;;;;;4978438;28;20221;-63
2023/06/15 07:03:31;;;;;;;11.32;2.40;;;18.00;99.90;;;;;;5009894;28;20356;-63
2023/06/15 07:05:59;;;;;;;4.82;2.55;;;18.00;99.90;;;;;;4992812;28;20237;-63
2023/06/15 07:08:25;;;;;;;4.70;2.60;;;18.20;99.90;;;;;;5006815;28;20349;-63
2023/06/15 07:10:54;;;;;;;7.38;2.90;;;18.10;99.90;;;;;;5004449;28;20209;-63
2023/06/15 07:13:20;;;;;;;9.48;3.00;;;18.20;99.90;;;;;;5011520;28;20236;-63
2023/06/15 07:15:49;;;;;;;7.22;2.92;;;18.10;99.90;;;;;;4959500;28;20210;-63
2023/06/15 07:18:16;;;;;;;6.53;2.75;;;18.30;99.90;;;;;;5009535;28;20222;-63
2023/06/15 07:20:43;;;;;;;5.25;3.08;;;18.30;99.90;;;;;;4997209;28;20275;-63
2023/06/15 07:23:10;;;;;;;4.85;2.63;;;18.40;99.90;;;;;;5002999;28;20360;-63
2023/06/15 07:25:36;;;;;;;3.70;2.65;;;18.60;99.90;;;;;;5007116;28;20198;-63
2023/06/15 07:28:05;;;;;;;5.93;2.67;;;18.40;99.90;;;;;;5008417;28;20199;-63
2023/06/15 07:30:32;;;;;;;4.35;2.63;;;18.60;99.90;;;;;;4976755;28;20214;-63
2023/06/15 07:32:58;;;;;;;4.25;2.33;;;18.60;99.90;;;;;;4995864;28;20194;-63
2023/06/15 07:35:25;;;;;;;5.38;2.60;;;18.60;99.90;;;;;;5011753;28;20201;-64
2023/06/15 07:37:52;;;;;;;7.95;2.50;;;18.70;99.90;;;;;;4995393;28;20563;-64
2023/06/15 07:40:19;;;;;;;10.23;2.03;;;18.80;99.90;;;;;;5005968;28;20202;-63
2023/06/15 07:42:45;;;;;;;2.42;2.22;;;18.90;99.90;;;;;;5007518;28;20218;-63
2023/06/15 07:45:14;;;;;;;3.60;2.33;;;19.00;99.90;;;;;;4980279;28;20769;-63
2023/06/15 07:47:41;;;;;;;8.00;2.45;;;19.00;99.90;;;;;;4998298;28;20660;-63
2023/06/15 07:50:09;;;;;;;4.78;2.45;;;19.00;99.90;;;;;;5011746;28;20201;-63
2023/06/15 07:52:36;;;;;;;6.47;2.13;;;19.10;99.90;;;;;;4997776;28;20213;-63
2023/06/15 07:55:02;;;;;;;2.47;2.25;;;19.20;99.90;;;;;;5011300;28;20213;-63
2023/06/15 07:57:29;;;;;;;5.65;2.47;;;19.30;99.90;;;;;;5011150;28;20190;-63
2023/06/15 07:59:56;;;;;;;8.77;2.20;;;19.40;99.90;;;;;;5008779;28;20190;-63
2023/06/15 08:02:24;;;;;;;2.97;2.30;;;19.40;99.90;;;;;;4974044;28;20984;-63
2023/06/15 08:04:51;;;;;;;8.45;2.53;;;19.40;99.90;;;;;;5004151;28;20598;-63
2023/06/15 08:07:18;;;;;;;7.00;2.47;;;19.60;99.90;;;;;;5011495;28;20315;-63
2023/06/15 08:09:44;;;;;;;4.82;2.47;;;19.70;99.90;;;;;;4996816;28;20206;-63
2023/06/15 08:12:11;;;;;;;6.95;2.70;;;19.70;99.90;;;;;;5012335;28;20213;-63
2023/06/15 08:14:38;;;;;;;3.38;2.63;;;19.90;99.90;;;;;;5011638;28;20212;-63
2023/06/15 08:17:06;;;;;;;5.15;2.20;;;19.90;99.90;;;;;;4982224;28;20528;-63
2023/06/15 08:19:34;;;;;;;4.10;2.30;;;19.90;99.90;;;;;;4999844;28;20217;-63
2023/06/15 08:22:01;;;;;;;9.48;2.50;;;19.90;99.90;;;;;;5010610;28;20194;-63
2023/06/15 08:24:28;;;;;;;4.65;2.50;;;19.90;99.90;;;;;;4997334;28;20245;-64
2023/06/15 08:26:55;;;;;;;3.00;2.10;;;19.90;99.90;;;;;;5007063;28;20370;-63
2023/06/15 08:29:22;;;;;;;2.90;2.53;;;20.00;99.90;;;;;;5009965;28;20690;-63
2023/06/15 08:31:49;;;;;;;7.57;2.80;;;20.00;99.90;;;;;;4984198;28;20747;-64
2023/06/15 08:34:15;;;;;;;3.78;2.35;;;20.10;99.90;;;;;;4997085;28;20198;-63
2023/06/15 08:36:43;;;;;;;3.50;2.28;;;20.10;99.90;;;;;;5005590;28;20586;-63
2023/06/15 08:39:10;;;;;;;6.57;2.35;;;20.10;99.90;;;;;;4997149;28;20218;-63
2023/06/15 08:41:38;;;;;;;3.83;2.83;;;20.30;99.90;;;;;;5008492;28;20221;-64
2023/06/15 08:44:05;;;;;;;10.00;2.60;;;20.30;99.90;;;;;;5009850;28;20222;-63
2023/06/15 08:46:32;;;;;;;3.08;2.33;;;20.30;99.90;;;;;;5008225;28;20248;-63
2023/06/15 08:49:01;;;;;;;5.60;2.63;;;20.40;99.90;;;;;;4966417;28;20650;-63
2023/06/15 08:51:28;;;;;;;3.65;2.30;;;20.40;99.90;;;;;;5012737;28;20194;-63
2023/06/15 08:53:56;;;;;;;9.32;2.70;;;20.40;99.90;;;;;;4975978;28;21038;-64
2023/06/15 08:56:23;;;;;;;7.95;2.42;;;20.50;99.90;;;;;;5012173;28;20205;-63
2023/06/15 08:58:50;;;;;;;10.32;2.42;;;20.60;99.90;;;;;;5002714;28;20198;-63
2023/06/15 09:01:22;;;;;;;4.20;2.70;;;20.60;99.90;;;;;;5011478;28;20202;-63
2023/06/15 09:03:51;;;;;;;6.47;2.22;;;20.60;99.90;;;;;;4960355;28;20231;-63
2023/06/15 09:06:19;;;;;;;3.17;2.00;;;20.90;99.90;;;;;;5011063;28;20541;-64
2023/06/15 09:08:46;;;;;;;2.88;2.15;;;21.00;99.90;;;;;;4996373;28;20207;-64
2023/06/15 09:11:14;;;;;;;4.40;2.40;;;21.10;99.90;;;;;;4998957;28;20222;-63
2023/06/15 09:13:41;;;;;;;5.45;2.60;;;21.10;99.90;;;;;;5005171;28;20202;-63
2023/06/15 09:16:09;;;;;;;5.07;2.28;;;21.00;99.90;;;;;;5004900;28;20670;-63
2023/06/15 09:18:44;;;;;;;3.20;2.03;;;21.00;99.90;;;;;;4975423;28;20226;-63
2023/06/15 09:21:13;;;;;;;4.53;2.40;;;21.20;99.90;;;;;;5008927;28;20229;-63
2023/06/15 09:23:42;;;;;;;4.47;2.50;;;21.20;99.90;;;;;;5009301;28;20256;-63
2023/06/15 09:26:10;;;;;;;8.05;2.20;;;21.30;99.90;;;;;;4983008;28;20757;-63
2023/06/15 09:28:45;;;;;;;6.03;2.40;;;21.30;99.90;;;;;;5012752;28;20205;-63
2023/06/15 09:31:28;;;;;;;4.50;2.47;;;21.30;99.90;;;;;;5014216;28;20194;-63
2023/06/15 09:34:01;;;;;;;3.70;2.30;;;21.50;99.90;;;;;;4977229;28;20398;-63
2023/06/15 09:36:33;;;;;;;3.33;2.08;;;21.50;99.90;;;;;;4995487;28;20236;-63
2023/06/15 09:39:00;;;;;;;4.57;2.13;;;21.60;99.90;;;;;;5008108;28;20988;-64
2023/06/15 09:41:27;;;;;;;4.30;2.45;;;21.70;99.90;;;;;;4985535;28;20198;-63
2023/06/15 09:43:55;;;;;;;4.47;2.38;;;21.60;99.90;;;;;;5000116;28;20226;-63
2023/06/15 09:46:22;;;;;;;4.13;2.58;;;21.70;99.90;;;;;;5007221;28;20206;-64
2023/06/15 09:48:48;;;;;;;2.47;2.03;;;21.80;99.90;;;;;;4973168;28;21197;-64
2023/06/15 09:51:16;;;;;;;8.18;2.50;;;21.80;99.90;;;;;;4997060;28;20590;-63
2023/06/15 09:53:44;;;;;;;11.93;2.28;;;21.90;99.90;;;;;;5006773;28;20207;-63
2023/06/15 09:56:11;;;;;;;6.25;2.50;;;21.90;99.90;;;;;;4999946;28;20209;-63
2023/06/15 09:58:38;;;;;;;8.90;2.60;;;22.00;99.90;;;;;;5004810;28;20222;-63
2023/06/15 10:01:10;;;;;;;5.70;2.50;;;22.00;99.90;;;;;;5008523;28;20827;-63
2023/06/15 10:03:38;;;;;;;3.97;2.55;;;22.30;99.90;;;;;;5008745;28;20205;-64
2023/06/15 10:06:09;;;;;;;5.55;2.10;;;22.30;99.90;;;;;;4977081;28;20533;-63
2023/06/15 10:08:41;;;;;;;4.03;2.40;;;22.60;99.90;;;;;;5007315;28;20229;-64
2023/06/15 10:11:11;;;;;;;2.78;2.22;;;23.00;99.90;;;;;;5007454;28;20290;-63
2023/06/15 10:13:44;;;;;;;5.18;2.25;;;23.00;99.90;;;;;;4991359;28;20679;-63
2023/06/15 10:16:15;;;;;;;7.78;2.50;;;23.20;99.90;;;;;;5006288;28;20202;-64
2023/06/15 10:18:44;;;;;;;3.15;2.30;;;23.30;99.90;;;;;;4994175;28;20210;-63
2023/06/15 10:21:14;;;;;;;5.72;2.35;;;23.20;99.90;;;;;;4975675;28;20255;-64
2023/06/15 10:23:43;;;;;;;2.60;2.15;;;23.40;99.90;;;;;;5006012;28;20198;-63
2023/06/15 10:26:10;;;;;;;4.55;2.20;;;23.40;99.90;;;;;;5006391;28;20222;-63
2023/06/15 10:28:48;;;;;;;2.75;2.25;;;22.90;99.90;;;;;;4997477;28;20217;-63
2023/06/15 10:31:23;;;;;;;4.80;2.72;;;22.90;99.90;;;;;;5013949;28;20204;-63
2023/06/15 10:33:57;;;;;;;5.28;2.30;;;22.80;99.90;;;;;;4991936;28;20609;-64
2023/06/15 10:36:28;;;;;;;5.95;2.38;;;22.80;99.90;;;;;;4979015;28;20571;-63
2023/06/15 10:38:59;;;;;;;6.80;2.15;;;23.20;99.90;;;;;;5005847;28;20205;-63
2023/06/15 10:41:27;;;;;;;5.32;2.90;;;23.10;99.90;;;;;;5010541;28;20251;-63
2023/06/15 10:43:59;;;;;;;2.90;2.17;;;22.80;99.90;;;;;;4995168;28;20202;-63
2023/06/15 10:46:31;;;;;;;6.13;2.70;;;22.80;99.90;;;;;;5012778;28;20194;-63
2023/06/15 10:49:03;;;;;;;4.97;2.78;;;22.60;99.90;;;;;;4997505;28;20210;-63
2023/06/15 10:51:33;;;;;;;5.90;2.28;;;22.30;99.90;;;;;;5004107;28;20305;-64
2023/06/15 10:54:02;;;;;;;7.30;2.92;;;22.30;99.90;;;;;;4976362;28;20194;-63
2023/06/15 10:56:29;;;;;;;3.42;2.25;;;22.20;99.90;;;;;;5010722;28;20210;-63
2023/06/15 10:58:58;;;;;;;5.88;2.53;;;22.20;99.90;;;;;;4995601;28;20509;-63
2023/06/15 11:01:26;;;;;;;5.30;2.25;;;22.10;99.90;;;;;;4995336;28;20229;-63
2023/06/15 11:03:54;;;;;;;8.23;2.30;;;22.10;99.90;;;;;;4996407;28;20878;-63
2023/06/15 11:06:23;;;;;;;3.97;2.35;;;22.10;99.90;;;;;;5010019;28;20292;-63
2023/06/15 11:08:51;;;;;;;5.60;2.60;;;22.10;99.90;;;;;;4961660;28;20705;-64
2023/06/15 11:11:26;;;;;;;3.15;2.40;;;22.10;99.90;;;;;;5011472;28;20194;-64
2023/06/15 11:14:02;;;;;;;7.20;2.38;;;22.60;99.90;;;;;;4986605;28;20205;-63
2023/06/15 11:16:34;;;;;;;5.60;2.35;;;22.60;99.90;;;;;;5014704;28;20236;-63
2023/06/15 11:19:25;;;;;;;7.10;2.22;;;22.90;99.90;;;;;;5008679;28;20441;-63
2023/06/15 11:21:59;;;;;;;3.25;1.95;;;22.80;99.90;;;;;;5012119;28;20264;-63
2023/06/15 11:24:26;;;;;;;4.55;2.30;;;22.80;99.90;;;;;;4981351;28;20432;-64
2023/06/15 11:26:55;;;;;;;5.50;2.30;;;22.80;99.90;;;;;;5010648;28;20260;-64
2023/06/15 11:29:22;;;;;;;9.77;2.95;;;22.70;99.90;;;;;;5001060;28;20206;-63
2023/06/15 11:31:50;;;;;;;3.60;2.35;;;22.60;99.90;;;;;;5008299;28;20210;-63
2023/06/15 11:34:17;;;;;;;4.43;2.25;;;22.60;99.90;;;;;;5010588;28;20206;-64
2023/06/15 11:36:46;;;;;;;17.85;2.95;;;22.60;99.90;;;;;;5007833;28;20201;-63
2023/06/15 11:39:19;;;;;;;2.80;2.22;;;22.70;99.90;;;;;;4963278;28;20249;-63
2023/06/15 11:41:48;;;;;;;10.65;2.28;;;22.70;99.90;;;;;;5001416;28;20732;-63
2023/06/15 11:44:15;;;;;;;5.50;2.30;;;22.70;99.90;;;;;;4981312;28;21301;-63
2023/06/15 11:46:42;;;;;;;3.90;2.80;;;22.80;99.90;;;;;;5013308;28;20205;-63
2023/06/15 11:49:11;;;;;;;4.38;2.28;;;22.80;99.90;;;;;;5007998;28;20202;-63
2023/06/15 11:51:46;;;;;;;6.75;2.30;;;22.70;99.90;;;;;;5010111;28;20228;-63
2023/06/15 11:54:15;;;;;;;2.72;2.15;;;22.60;99.90;;;;;;4974004;28;20210;-63
2023/06/15 11:56:45;;;;;;;1.95;1.73;;;22.60;99.90;;;;;;5010610;28;20202;-63
2023/06/15 11:59:13;;;;;;;13.07;2.03;;;22.50;99.90;;;;;;4995775;28;20265;-63
2023/06/15 12:01:41;;;;;;;6.07;2.20;;;22.50;99.90;;;;;;4997745;28;20260;-63
2023/06/15 12:04:12;;;;;;;9.55;2.35;;;22.40;99.90;;;;;;5006550;28;20194;-63
2023/06/15 12:06:39;;;;;;;4.28;2.45;;;22.30;99.90;;;;;;5011637;28;20327;-63
2023/06/15 12:09:07;;;;;;;4.57;2.22;;;22.30;99.90;;;;;;4973733;28;21313;-63
2023/06/15 12:11:36;;;;;;;4.32;2.20;;;22.20;99.90;;;;;;5002517;28;20225;-63
2023/06/15 12:14:06;;;;;;;5.05;2.47;;;22.20;99.90;;;;;;5004328;28;20214;-63
2023/06/15 12:16:33;;;;;;;8.20;2.10;;;22.20;99.90;;;;;;4995955;28;20946;-63
2023/06/15 12:19:01;;;;;;;2.85;2.20;;;22.10;99.90;;;;;;4997143;28;20281;-63
2023/06/15 12:21:32;;;;;;;5.85;2.30;;;22.10;99.90;;;;;;5000746;28;20911;-63
2023/06/15 12:24:00;;;;;;;5.20;2.35;;;22.10;99.90;;;;;;4977552;28;20337;-63
2023/06/15 12:26:31;;;;;;;2.50;2.10;;;22.10;99.90;;;;;;5010740;28;20253;-63
2023/06/15 12:29:00;;;;;;;6.97;2.10;;;22.10;99.90;;;;;;5011869;28;20199;-63
2023/06/15 12:31:32;;;;;;;2.47;1.92;;;22.10;99.90;;;;;;4995669;28;21308;-63
2023/06/15 12:33:59;;;;;;;5.40;2.60;;;22.20;99.90;;;;;;5011162;28;20698;-64
2023/06/15 12:36:28;;;;;;;5.35;1.98;;;22.30;99.90;;;;;;5008833;28;20194;-64
2023/06/15 12:38:55;;;;;;;4.43;2.33;;;22.50;99.90;;;;;;4972982;28;21601;-63
2023/06/15 12:41:22;;;;;;;3.97;2.17;;;22.50;99.90;;;;;;5007415;28;20233;-63
2023/06/15 12:43:49;;;;;;;3.33;2.40;;;22.50;99.90;;;;;;5002419;28;20589;-63
2023/06/15 12:46:18;;;;;;;8.32;2.20;;;22.40;99.90;;;;;;4992121;28;20742;-63
2023/06/15 12:48:45;;;;;;;5.90;2.22;;;22.50;99.90;;;;;;4995156;28;20222;-63
2023/06/15 12:51:12;;;;;;;2.10;1.90;;;22.60;99.90;;;;;;4995187;28;20905;-63
2023/06/15 12:53:39;;;;;;;3.35;2.40;;;22.60;99.90;;;;;;5008476;28;20194;-63